• Join FlightAware (Why Join?)
  • Login
  • US Flag 
09:03AM EDT


 

Airport Tracker/Info


-or-


 

Live Flight TrackerFlight Track Log ✈ TAM3216 ✈ 09-Jul-2013 ✈ SBSV / SSA - SBFZ / FOR

Flight Track Log - Related Links

Times and Time Zones

All times are in EDT time to prevent confusion due to time zone crossing. See the TAM3216 flight status page for this flight to view local times or setup timezone preferences in your user account.

Time Position Orientation Groundspeed Altitude Reporting Facility
EDT Latitude Longitude Course Direction KTS MPH feet Rate Location/Type
02:40PM -10.7450 -38.3798 359° North  Level Estimated
02:41PM -10.6508 -38.3819 359° North  Level Estimated
02:42PM -10.5566 -38.3840 359° North  Level Estimated
02:43PM -10.4624 -38.3861 359° North  Level Estimated
02:44PM -10.3682 -38.3882 359° North  Level Estimated
02:45PM -10.2740 -38.3903 359° North  Level Estimated
02:46PM -10.1799 -38.3924 359° North  Level Estimated
02:47PM -10.0857 -38.3945 359° North  Level Estimated
02:48PM -9.9915 -38.3965 359° North  Level Estimated
02:49PM -9.8973 -38.3986 359° North  Level Estimated
02:50PM -9.8032 -38.4007 359° North  Level Estimated
02:51PM -9.7090 -38.4028 359° North  Level Estimated
02:52PM -9.6148 -38.4049 359° North  Level Estimated
02:53PM -9.5206 -38.4070 359° North  Level Estimated
02:54PM -9.4264 -38.4091 359° North  Level Estimated
02:55PM -9.3322 -38.4112 359° North  Level Estimated
02:56PM -9.2381 -38.4132 359° North  Level Estimated
02:57PM -9.1439 -38.4153 359° North  Level Estimated
02:58PM -9.0497 -38.4174 359° North  Level Estimated
02:59PM -8.9555 -38.4195 359° North  Level Estimated
03:00PM -8.8614 -38.4216 359° North  Level Estimated
03:01PM -8.7672 -38.4236 359° North  Level Estimated
03:02PM -8.6730 -38.4257 359° North  Level Estimated
03:03PM -8.5788 -38.4278 359° North  Level Estimated
03:04PM -8.4688 -38.4302 359° North  Level Estimated
03:05PM -8.3587 -38.4327 359° North  Level Estimated
03:06PM -8.2486 -38.4351 359° North  Level Estimated
03:07PM -8.1386 -38.4375 359° North  Level Estimated
03:08PM -8.0285 -38.4399 359° North  Level Estimated
03:09PM -7.9184 -38.4423 359° North  Level Estimated
03:10PM -7.8084 -38.4448 359° North  Level Estimated
03:11PM -7.6983 -38.4472 359° North  Level Estimated
03:12PM -7.5883 -38.4496 359° North  Level Estimated
03:13PM -7.4782 -38.4520 359° North  Level Estimated
03:14PM -7.3682 -38.4544 359° North  Level Estimated
03:15PM -7.2581 -38.4568 359° North  Level Estimated
03:16PM -7.1480 -38.4592 359° North  Level Estimated
03:17PM -7.0380 -38.4616 359° North  Level Estimated
03:18PM -6.9279 -38.4640 359° North  Level Estimated
03:19PM -6.8179 -38.4664 359° North  Level Estimated
03:20PM -6.7078 -38.4688 359° North  Level Estimated
03:21PM -6.5977 -38.4712 359° North  Level Estimated
03:22PM -6.4877 -38.4737 359° North  Level Estimated
03:23PM -6.3776 -38.4761 359° North  Level Estimated
03:24PM -6.2675 -38.4785 359° North  Level Estimated
03:25PM -6.1575 -38.4809 359° North  Level Estimated
03:26PM -6.0474 -38.4832 359° North  Level Estimated
03:27PM -5.9374 -38.4856 359° North  Level Estimated
03:28PM -5.8273 -38.4880 359° North  Level Estimated
03:29PM -5.7172 -38.4905 359° North  Level Estimated
03:30PM -5.6072 -38.4928 359° North  Level Estimated
03:31PM -5.4971 -38.4952 359° North  Level Estimated
03:32PM -5.3871 -38.4976 359° North  Level Estimated
03:33PM -5.2770 -38.5000 359° North  Level Estimated
03:34PM -5.1670 -38.5024 359° North  Level Estimated
03:35PM -5.0569 -38.5048 359° North  Level Estimated
03:36PM -4.9468 -38.5072 359° North  Level Estimated
03:37PM -4.8368 -38.5096 359° North  Level Estimated
03:38PM -4.7267 -38.5120 359° North  Level Estimated
03:39PM -4.6167 -38.5144 359° North  Level Estimated
03:40PM -4.5066 -38.5167 359° North  Level Estimated
03:41PM -4.3965 -38.5191 359° North  Level Estimated
03:42PM -4.2865 -38.5215 359° North  Level Estimated
03:43PM -4.1764 -38.5239 359° North  Level Estimated
03:44PM -4.0663 -38.5263 359° North  Level Estimated
03:45PM -3.9563 -38.5287 359° North  Level Estimated
03:46PM -3.8462 -38.5310 359° North  Level Estimated
03:47PM -3.7763 -38.5326 359° North  Level Estimated
03:48PM -3.7763 -38.5326 127° Southeast  Level Estimated
03:49PM -3.7763 -38.5326 127° Southeast  Level Estimated
03:50PM -3.7763 -38.5326 127° Southeast  Level Estimated
03:51PM -3.7763 -38.5326 127° Southeast  Level Estimated
03:52PM -3.7763 -38.5326 127° Southeast  Level Estimated
03:53PM -3.7763 -38.5326 127° Southeast  Level Estimated
03:54PM -3.7763 -38.5326 127° Southeast  Level Estimated
03:55PM -3.7763 -38.5326 127° Southeast  Level Estimated
03:56PM -3.7763 -38.5326 127° Southeast  Level Estimated